Time;durP1;ratioP1;P1;durP2;ratioP2;P2;SDS_P1;SDS_P2;PMS_P1;PMS_P2;Temp;Humidity;BMP_temperature;BMP_pressure;BME280_temperature;BME280_humidity;BME280_pressure;Samples;Min_cycle;Max_cycle;Signal;HPM_P1;HPM_P2
2024/02/11 00:01:55;;;;;;;11.15;5.03;;;12.00;99.90;;;;;;5064901;28;20043;-49
2024/02/11 00:04:21;;;;;;;14.30;5.20;;;12.00;99.90;;;;;;5066120;28;20032;-50
2024/02/11 00:06:46;;;;;;;12.18;4.43;;;11.90;99.90;;;;;;5065763;28;20029;-50
2024/02/11 00:09:12;;;;;;;13.02;4.22;;;11.90;99.90;;;;;;5066092;28;20059;-50
2024/02/11 00:11:38;;;;;;;8.43;4.35;;;11.80;99.90;;;;;;5064996;28;20025;-50
2024/02/11 00:14:04;;;;;;;13.60;4.35;;;11.80;99.90;;;;;;5069153;28;20024;-50
2024/02/11 00:16:30;;;;;;;11.00;3.35;;;11.70;99.90;;;;;;5068908;28;20089;-50
2024/02/11 00:18:56;;;;;;;12.75;3.63;;;11.70;99.90;;;;;;5068722;28;20048;-50
2024/02/11 00:21:23;;;;;;;18.23;4.07;;;11.60;99.90;;;;;;5068881;28;20037;-50
2024/02/11 00:23:49;;;;;;;8.00;3.72;;;11.60;99.90;;;;;;5068989;28;20025;-50
2024/02/11 00:26:16;;;;;;;9.35;3.33;;;11.60;99.90;;;;;;5070176;28;20037;-49
2024/02/11 00:28:42;;;;;;;8.35;3.63;;;11.60;99.90;;;;;;5068611;28;20470;-50
2024/02/11 00:31:07;;;;;;;7.97;3.08;;;11.60;99.90;;;;;;5068461;28;20055;-50
2024/02/11 00:33:33;;;;;;;9.55;2.60;;;11.60;99.90;;;;;;5068415;28;20025;-50
2024/02/11 00:36:00;;;;;;;6.78;2.85;;;11.50;99.90;;;;;;5068429;28;20033;-50
2024/02/11 00:38:26;;;;;;;6.53;3.40;;;11.50;99.90;;;;;;5068333;28;20024;-50
2024/02/11 00:40:52;;;;;;;9.18;3.13;;;11.50;99.90;;;;;;5051578;28;20060;-50
2024/02/11 00:43:17;;;;;;;8.02;2.42;;;11.50;99.90;;;;;;5069521;28;20032;-49
2024/02/11 00:45:43;;;;;;;7.25;2.85;;;11.40;99.90;;;;;;5068154;28;20439;-49
2024/02/11 00:48:10;;;;;;;4.65;2.47;;;11.40;99.90;;;;;;5068053;28;20033;-49
2024/02/11 00:50:36;;;;;;;5.45;2.92;;;11.30;99.90;;;;;;5069380;28;20039;-50
2024/02/11 00:53:02;;;;;;;11.38;3.13;;;11.30;99.90;;;;;;5068167;28;20041;-49
2024/02/11 00:55:28;;;;;;;6.78;2.83;;;11.30;99.90;;;;;;5069420;28;20029;-50
2024/02/11 00:57:54;;;;;;;5.13;2.85;;;11.30;99.90;;;;;;5069330;28;20033;-49
2024/02/11 01:00:20;;;;;;;4.75;2.15;;;11.20;99.90;;;;;;5051363;28;20366;-49
2024/02/11 01:02:45;;;;;;;8.38;2.38;;;11.20;99.90;;;;;;5069154;28;20104;-50
2024/02/11 01:05:11;;;;;;;6.78;1.70;;;11.20;99.90;;;;;;5067834;28;20497;-49
2024/02/11 01:07:38;;;;;;;5.57;2.13;;;11.20;99.90;;;;;;5069010;28;20040;-49
2024/02/11 01:10:07;;;;;;;9.15;2.03;;;11.10;99.90;;;;;;5067866;28;20041;-49
2024/02/11 01:12:32;;;;;;;3.13;1.70;;;11.10;99.90;;;;;;5067659;28;20018;-49
2024/02/11 01:14:58;;;;;;;4.60;1.58;;;11.10;99.90;;;;;;5067743;28;20028;-49
2024/02/11 01:17:26;;;;;;;4.45;2.10;;;11.10;99.90;;;;;;5067593;28;20032;-50
2024/02/11 01:19:52;;;;;;;5.43;1.88;;;11.00;99.90;;;;;;5067515;28;20033;-50
2024/02/11 01:22:17;;;;;;;3.13;1.60;;;11.00;99.90;;;;;;5050917;28;20029;-50
2024/02/11 01:24:43;;;;;;;2.63;1.60;;;11.00;99.90;;;;;;5067800;28;20028;-49
2024/02/11 01:27:09;;;;;;;2.30;1.77;;;11.00;99.90;;;;;;5068650;28;20021;-49
2024/02/11 01:29:37;;;;;;;3.95;1.42;;;10.90;99.90;;;;;;5068830;28;20073;-49
2024/02/11 01:32:05;;;;;;;3.92;1.63;;;10.90;99.90;;;;;;5067425;28;20155;-50
2024/02/11 01:34:31;;;;;;;4.20;1.70;;;10.90;99.90;;;;;;5068647;28;20052;-50
2024/02/11 01:36:57;;;;;;;3.83;1.38;;;10.90;99.90;;;;;;5068356;28;20037;-50
2024/02/11 01:39:22;;;;;;;6.45;1.50;;;10.90;99.90;;;;;;5068565;28;20040;-50
2024/02/11 01:41:48;;;;;;;5.20;1.23;;;10.80;99.90;;;;;;5068218;28;20052;-50
2024/02/11 01:44:14;;;;;;;5.65;1.45;;;10.80;99.90;;;;;;5067089;28;20032;-50
2024/02/11 01:46:40;;;;;;;3.25;1.58;;;10.80;99.90;;;;;;5050392;28;20115;-50
2024/02/11 01:49:06;;;;;;;2.63;1.38;;;10.80;99.90;;;;;;5067092;28;20025;-49
2024/02/11 01:51:33;;;;;;;4.05;1.20;;;10.70;99.90;;;;;;5068250;28;20017;-49
2024/02/11 01:53:59;;;;;;;2.17;1.35;;;10.70;99.90;;;;;;5066864;28;20029;-49
2024/02/11 01:56:25;;;;;;;3.33;1.20;;;10.70;99.90;;;;;;5067016;28;20031;-50
2024/02/11 01:58:51;;;;;;;6.00;1.48;;;10.70;99.90;;;;;;5066828;28;20088;-49
2024/02/11 02:01:21;;;;;;;3.40;1.40;;;10.70;99.90;;;;;;5066783;28;20040;-49
2024/02/11 02:03:47;;;;;;;3.08;1.02;;;10.70;99.90;;;;;;5066783;28;20096;-50
2024/02/11 02:06:12;;;;;;;3.08;1.17;;;10.60;99.90;;;;;;5067842;28;20033;-50
2024/02/11 02:08:39;;;;;;;3.60;1.27;;;10.60;99.90;;;;;;5066798;28;20028;-49
2024/02/11 02:11:04;;;;;;;3.15;1.30;;;10.60;99.90;;;;;;5066472;28;20028;-49
2024/02/11 02:13:30;;;;;;;2.40;1.20;;;10.60;99.90;;;;;;5067611;28;20022;-50
2024/02/11 02:15:55;;;;;;;1.92;1.10;;;10.50;99.90;;;;;;5066476;28;20070;-50
2024/02/11 02:18:21;;;;;;;1.88;1.10;;;10.50;99.90;;;;;;5066455;28;20396;-49
2024/02/11 02:20:47;;;;;;;1.88;1.10;;;10.50;99.90;;;;;;5067768;28;20029;-50
2024/02/11 02:23:12;;;;;;;2.42;1.27;;;10.50;99.90;;;;;;5067671;28;20052;-50
2024/02/11 02:25:38;;;;;;;2.13;0.93;;;10.50;99.90;;;;;;5067600;28;20056;-49
2024/02/11 02:28:05;;;;;;;1.23;1.10;;;10.50;99.90;;;;;;5066063;28;20029;-49
2024/02/11 02:30:32;;;;;;;3.95;1.10;;;10.50;99.90;;;;;;5067623;28;20043;-50
2024/02/11 02:32:57;;;;;;;3.42;1.10;;;10.40;99.90;;;;;;5067367;28;20032;-49
2024/02/11 02:35:23;;;;;;;3.50;1.10;;;10.40;99.90;;;;;;5067172;28;20049;-49
2024/02/11 02:37:53;;;;;;;1.20;0.98;;;10.40;99.90;;;;;;5065943;28;20040;-49
2024/02/11 02:40:24;;;;;;;4.13;0.95;;;10.40;99.90;;;;;;5067211;28;20039;-50
2024/02/11 02:42:50;;;;;;;2.08;0.85;;;10.40;99.90;;;;;;5067186;28;20039;-50
2024/02/11 02:45:16;;;;;;;1.23;0.68;;;10.40;99.90;;;;;;5066239;28;20499;-50
2024/02/11 02:47:41;;;;;;;1.75;0.98;;;10.40;99.90;;;;;;5066960;28;20037;-50
2024/02/11 02:50:07;;;;;;;1.70;0.80;;;10.30;99.90;;;;;;5066078;28;20029;-50
2024/02/11 02:52:36;;;;;;;1.42;0.90;;;10.30;99.90;;;;;;5066805;28;20401;-50
2024/02/11 02:55:05;;;;;;;3.05;1.15;;;10.30;99.90;;;;;;5049258;28;20031;-50
2024/02/11 02:57:33;;;;;;;1.05;0.93;;;10.30;99.90;;;;;;5066961;28;20029;-50
2024/02/11 02:59:59;;;;;;;1.65;0.80;;;10.30;99.90;;;;;;5066126;28;20029;-50
2024/02/11 03:02:24;;;;;;;1.70;1.00;;;10.30;99.90;;;;;;5065759;28;20036;-49
2024/02/11 03:04:51;;;;;;;1.20;0.70;;;10.30;99.90;;;;;;5066960;28;20389;-50
2024/02/11 03:07:17;;;;;;;1.75;0.80;;;10.20;99.90;;;;;;5065329;28;20503;-50
2024/02/11 03:09:42;;;;;;;2.25;0.80;;;10.20;99.90;;;;;;5065489;28;20029;-49
2024/02/11 03:12:08;;;;;;;1.95;0.80;;;10.20;99.90;;;;;;5065652;28;20090;-50
2024/02/11 03:14:33;;;;;;;1.25;0.80;;;10.20;99.90;;;;;;5065339;28;20029;-49
2024/02/11 03:16:59;;;;;;;1.67;0.85;;;10.20;99.90;;;;;;5048730;28;20443;-49
2024/02/11 03:19:26;;;;;;;2.72;1.00;;;10.20;99.90;;;;;;5066671;28;20060;-50
2024/02/11 03:21:52;;;;;;;0.88;0.77;;;10.20;99.90;;;;;;5065276;28;20033;-50
2024/02/11 03:24:18;;;;;;;1.90;1.00;;;10.10;99.90;;;;;;5066705;28;20033;-50
2024/02/11 03:26:43;;;;;;;1.17;0.52;;;10.10;99.90;;;;;;5066444;28;20053;-50
2024/02/11 03:29:09;;;;;;;3.78;0.73;;;10.10;99.90;;;;;;5065109;28;20473;-49
2024/02/11 03:31:35;;;;;;;1.48;0.75;;;10.10;99.90;;;;;;5066441;28;20029;-50
2024/02/11 03:34:01;;;;;;;1.88;0.90;;;10.10;99.90;;;;;;5065156;28;20053;-49
2024/02/11 03:36:27;;;;;;;0.82;0.68;;;10.00;99.90;;;;;;5066170;28;20135;-50
2024/02/11 03:38:52;;;;;;;3.50;1.23;;;10.10;99.90;;;;;;5066292;28;20029;-50
2024/02/11 03:41:18;;;;;;;1.52;0.85;;;10.10;99.90;;;;;;5065056;28;20036;-50
2024/02/11 03:43:44;;;;;;;1.30;0.70;;;10.00;99.90;;;;;;5065002;28;20084;-50
2024/02/11 03:46:09;;;;;;;2.88;1.15;;;10.00;99.90;;;;;;5064805;28;20053;-50
2024/02/11 03:48:35;;;;;;;1.90;0.90;;;10.00;99.90;;;;;;5064441;28;20059;-50
2024/02/11 03:51:00;;;;;;;2.17;1.05;;;10.00;99.90;;;;;;5066227;28;20028;-49
2024/02/11 03:53:27;;;;;;;2.15;0.90;;;10.00;99.90;;;;;;5066281;28;20064;-49
2024/02/11 03:55:52;;;;;;;1.10;0.88;;;10.00;99.90;;;;;;5065022;28;20029;-50
2024/02/11 03:58:18;;;;;;;0.85;0.68;;;10.00;99.90;;;;;;5064909;28;20035;-50
2024/02/11 04:00:44;;;;;;;1.70;0.90;;;10.00;99.90;;;;;;5064873;28;20044;-49
2024/02/11 04:03:11;;;;;;;1.45;0.70;;;9.90;99.90;;;;;;5064601;28;20033;-49
2024/02/11 04:05:39;;;;;;;0.85;0.70;;;9.90;99.90;;;;;;5065013;28;20044;-50
2024/02/11 04:08:08;;;;;;;1.02;0.75;;;9.90;99.90;;;;;;5065949;28;20029;-49
2024/02/11 04:10:36;;;;;;;0.93;0.70;;;9.90;99.90;;;;;;5066074;28;20036;-50
2024/02/11 04:13:02;;;;;;;1.25;0.95;;;9.90;99.90;;;;;;5066044;28;20029;-50
2024/02/11 04:15:27;;;;;;;0.75;0.70;;;9.90;99.90;;;;;;5066039;28;20033;-49
2024/02/11 04:17:56;;;;;;;1.55;0.80;;;9.90;99.90;;;;;;5064764;28;20029;-50
2024/02/11 04:20:26;;;;;;;1.17;1.02;;;9.90;99.90;;;;;;5065865;28;20071;-50
2024/02/11 04:23:03;;;;;;;1.00;0.77;;;9.90;99.90;;;;;;5048260;28;20032;-50
2024/02/11 04:25:36;;;;;;;0.70;0.70;;;9.80;99.90;;;;;;5066043;28;20048;-50
2024/02/11 04:28:07;;;;;;;1.08;0.70;;;9.80;99.90;;;;;;5065841;28;20041;-50
2024/02/11 04:30:34;;;;;;;1.13;0.60;;;9.80;99.90;;;;;;5048371;28;20025;-49
2024/02/11 04:33:02;;;;;;;0.65;0.60;;;9.80;99.90;;;;;;5065637;28;20108;-49
2024/02/11 04:35:27;;;;;;;1.38;0.90;;;9.80;99.90;;;;;;5065674;28;20108;-50
2024/02/11 04:37:53;;;;;;;1.42;0.75;;;9.80;99.90;;;;;;5065642;28;20377;-49
2024/02/11 04:40:19;;;;;;;1.83;0.73;;;9.80;99.90;;;;;;5064396;28;20115;-50
2024/02/11 04:42:47;;;;;;;1.38;0.80;;;9.80;99.90;;;;;;5064477;28;20029;-50
2024/02/11 04:45:16;;;;;;;1.65;0.63;;;9.80;99.90;;;;;;5064602;28;20088;-50
2024/02/11 04:47:46;;;;;;;2.08;0.90;;;9.80;99.90;;;;;;5064183;28;20045;-50
2024/02/11 04:50:15;;;;;;;1.33;0.82;;;9.80;99.90;;;;;;5064490;28;20025;-50
2024/02/11 04:52:48;;;;;;;2.95;1.23;;;9.70;99.90;;;;;;5064477;28;20036;-50
2024/02/11 04:55:14;;;;;;;1.92;0.90;;;9.70;99.90;;;;;;5065643;28;20508;-50
2024/02/11 04:57:40;;;;;;;1.50;0.80;;;9.70;99.90;;;;;;5064196;28;20029;-50
2024/02/11 05:00:10;;;;;;;1.25;0.82;;;9.70;99.90;;;;;;5065522;28;20040;-50
2024/02/11 05:02:37;;;;;;;1.33;0.70;;;9.70;99.90;;;;;;5069045;28;20025;-50
2024/02/11 05:05:04;;;;;;;0.82;0.82;;;9.70;99.90;;;;;;5067723;28;20029;-49
2024/02/11 05:07:32;;;;;;;0.60;0.60;;;9.70;99.90;;;;;;5068938;28;20025;-49
2024/02/11 05:09:58;;;;;;;0.80;0.75;;;9.70;99.90;;;;;;5068989;28;20029;-49
2024/02/11 05:12:24;;;;;;;1.45;0.80;;;9.70;99.90;;;;;;5068852;28;20497;-49
2024/02/11 05:14:51;;;;;;;1.38;1.10;;;9.70;99.90;;;;;;5067813;28;20063;-50
2024/02/11 05:17:16;;;;;;;1.42;0.80;;;9.60;99.90;;;;;;5068836;28;20029;-50
2024/02/11 05:19:42;;;;;;;1.17;0.80;;;9.60;99.90;;;;;;5068826;28;20068;-49
2024/02/11 05:22:09;;;;;;;1.35;1.02;;;9.60;99.90;;;;;;5050824;28;20029;-49
2024/02/11 05:24:37;;;;;;;1.27;0.70;;;9.60;99.90;;;;;;5050892;28;20021;-49
2024/02/11 05:27:04;;;;;;;1.25;0.93;;;9.60;99.90;;;;;;5068740;28;20452;-50
2024/02/11 05:29:29;;;;;;;1.15;0.82;;;9.60;99.90;;;;;;5068659;28;20550;-49
2024/02/11 05:31:55;;;;;;;1.60;1.00;;;9.60;99.90;;;;;;5068761;28;20082;-49
2024/02/11 05:34:21;;;;;;;0.93;0.80;;;9.60;99.90;;;;;;5068798;28;20081;-50
2024/02/11 05:36:47;;;;;;;1.02;0.73;;;9.60;99.90;;;;;;5067089;28;20041;-50
2024/02/11 05:39:13;;;;;;;1.60;1.00;;;9.60;99.90;;;;;;5068263;28;20036;-50
2024/02/11 05:41:38;;;;;;;1.50;1.00;;;9.60;99.90;;;;;;5068518;28;20057;-49
2024/02/11 05:44:04;;;;;;;1.02;0.82;;;9.60;99.90;;;;;;5068622;28;20025;-49
2024/02/11 05:46:29;;;;;;;1.30;0.90;;;9.50;99.90;;;;;;5067077;28;20024;-50
2024/02/11 05:48:55;;;;;;;1.60;1.05;;;9.60;99.90;;;;;;5068480;28;20036;-50
2024/02/11 05:51:20;;;;;;;2.28;0.90;;;9.60;99.90;;;;;;5067123;28;20051;-49
2024/02/11 05:53:46;;;;;;;1.10;1.00;;;9.50;99.90;;;;;;5066953;28;20040;-49
2024/02/11 05:56:13;;;;;;;1.30;0.90;;;9.50;99.90;;;;;;5066883;28;20028;-49
2024/02/11 05:58:38;;;;;;;1.00;0.90;;;9.50;99.90;;;;;;5068219;28;20033;-50
2024/02/11 06:01:04;;;;;;;1.10;1.05;;;9.50;99.90;;;;;;5067904;28;20040;-51
2024/02/11 06:03:33;;;;;;;1.30;1.00;;;9.50;99.90;;;;;;5066906;28;20032;-49
2024/02/11 06:05:59;;;;;;;1.00;0.90;;;9.50;99.90;;;;;;5068079;28;20059;-51
2024/02/11 06:08:24;;;;;;;1.40;1.05;;;9.50;99.90;;;;;;5049872;28;20032;-50
2024/02/11 06:10:51;;;;;;;1.13;0.90;;;9.50;99.90;;;;;;5067349;28;20087;-50
2024/02/11 06:13:18;;;;;;;1.30;0.90;;;9.50;99.90;;;;;;5066706;28;20053;-50
2024/02/11 06:15:43;;;;;;;1.33;0.93;;;9.50;99.90;;;;;;5067845;28;20054;-49
2024/02/11 06:18:10;;;;;;;1.33;0.93;;;9.50;99.90;;;;;;5067854;28;20044;-50
2024/02/11 06:20:38;;;;;;;1.00;0.82;;;9.50;99.90;;;;;;5066492;28;20025;-50
2024/02/11 06:23:05;;;;;;;1.13;0.98;;;9.50;99.90;;;;;;5067818;28;20036;-49
2024/02/11 06:25:30;;;;;;;1.45;1.30;;;9.40;99.90;;;;;;5067584;28;20108;-49
2024/02/11 06:27:56;;;;;;;2.25;1.10;;;9.50;99.90;;;;;;5066228;28;20496;-49
2024/02/11 06:30:24;;;;;;;2.42;1.15;;;9.40;99.90;;;;;;5067575;28;20075;-50
2024/02/11 06:32:51;;;;;;;1.10;1.00;;;9.50;99.90;;;;;;5066131;28;20045;-50
2024/02/11 06:35:18;;;;;;;1.23;1.13;;;9.40;99.90;;;;;;5066333;28;20045;-49
2024/02/11 06:37:47;;;;;;;1.88;0.90;;;9.40;99.90;;;;;;5067274;28;20053;-49
2024/02/11 06:40:17;;;;;;;1.25;1.15;;;9.50;99.90;;;;;;5067516;28;20033;-50
2024/02/11 06:42:43;;;;;;;1.48;1.05;;;9.40;99.90;;;;;;5066046;28;20040;-49
2024/02/11 06:45:12;;;;;;;1.65;1.13;;;9.40;99.90;;;;;;5066084;28;20029;-49
2024/02/11 06:47:41;;;;;;;3.38;1.48;;;9.40;99.90;;;;;;5067160;28;20116;-50
2024/02/11 06:50:08;;;;;;;1.20;1.10;;;9.40;99.90;;;;;;5067272;28;20025;-49
2024/02/11 06:52:34;;;;;;;1.55;1.30;;;9.40;99.90;;;;;;5065797;28;20036;-50
2024/02/11 06:55:01;;;;;;;1.38;1.23;;;9.40;99.90;;;;;;5065867;28;20029;-50
2024/02/11 06:57:29;;;;;;;2.55;1.30;;;9.40;99.90;;;;;;5067166;28;20060;-50
2024/02/11 06:59:56;;;;;;;1.35;1.25;;;9.40;99.90;;;;;;5067317;28;20029;-49
2024/02/11 07:02:21;;;;;;;1.70;1.42;;;9.40;99.90;;;;;;5066939;28;20462;-50
2024/02/11 07:04:47;;;;;;;1.73;1.30;;;9.40;99.90;;;;;;5066917;28;20045;-50
2024/02/11 07:07:13;;;;;;;1.63;1.10;;;9.40;99.90;;;;;;5066834;28;20025;-49
2024/02/11 07:09:41;;;;;;;1.30;1.20;;;9.40;99.90;;;;;;5066915;28;20051;-50
2024/02/11 07:12:06;;;;;;;1.92;1.48;;;9.40;99.90;;;;;;5065797;28;20025;-50
2024/02/11 07:14:32;;;;;;;1.58;1.48;;;9.30;99.90;;;;;;5066882;28;20036;-49
2024/02/11 07:17:00;;;;;;;1.55;1.42;;;9.40;99.90;;;;;;5066729;28;20097;-50
2024/02/11 07:19:26;;;;;;;1.40;1.30;;;9.30;99.90;;;;;;5065419;28;20033;-50
2024/02/11 07:21:54;;;;;;;1.42;1.33;;;9.30;99.90;;;;;;5066092;28;20060;-50
2024/02/11 07:24:20;;;;;;;1.45;1.20;;;9.30;99.90;;;;;;5066336;28;20036;-49
2024/02/11 07:26:49;;;;;;;1.45;1.33;;;9.30;99.90;;;;;;5065301;28;20052;-50
2024/02/11 07:29:17;;;;;;;1.98;1.20;;;9.30;99.90;;;;;;5065318;28;20090;-51
2024/02/11 07:31:42;;;;;;;1.30;1.20;;;9.30;99.90;;;;;;5065249;28;20029;-50
2024/02/11 07:34:10;;;;;;;1.60;1.42;;;9.30;99.90;;;;;;5066641;28;20025;-50
2024/02/11 07:36:37;;;;;;;1.65;1.27;;;9.30;99.90;;;;;;5065074;28;20067;-50
2024/02/11 07:39:03;;;;;;;1.60;1.50;;;9.30;99.90;;;;;;5066626;28;20048;-50
2024/02/11 07:41:29;;;;;;;1.35;1.25;;;9.30;99.90;;;;;;5066312;28;20108;-50
2024/02/11 07:43:55;;;;;;;1.90;1.40;;;9.30;99.90;;;;;;5064981;28;20043;-50
2024/02/11 07:46:21;;;;;;;1.40;1.30;;;9.30;99.90;;;;;;5065007;28;20092;-50
2024/02/11 07:48:48;;;;;;;1.40;1.30;;;9.30;99.90;;;;;;5066072;28;20116;-50
2024/02/11 07:51:16;;;;;;;2.72;1.60;;;9.30;99.90;;;;;;5048427;28;20031;-50
2024/02/11 07:53:42;;;;;;;1.90;1.40;;;9.30;99.90;;;;;;5064853;28;20032;-50
2024/02/11 07:56:14;;;;;;;2.05;1.42;;;9.30;99.90;;;;;;5064911;28;20029;-49
2024/02/11 07:58:41;;;;;;;1.85;1.17;;;9.30;99.90;;;;;;5064765;28;20089;-50
2024/02/11 08:01:07;;;;;;;1.58;1.48;;;9.30;99.90;;;;;;5064807;28;20216;-50
2024/02/11 08:03:33;;;;;;;1.55;1.45;;;9.30;99.90;;;;;;5048150;28;20074;-49
2024/02/11 08:05:59;;;;;;;1.60;1.40;;;9.30;99.90;;;;;;5066043;28;20486;-50
2024/02/11 08:08:25;;;;;;;1.48;1.30;;;9.30;99.90;;;;;;5060501;28;20056;-50
2024/02/11 08:10:51;;;;;;;1.80;1.40;;;9.30;99.90;;;;;;5064157;28;20036;-50
2024/02/11 08:13:17;;;;;;;1.92;1.55;;;9.30;99.90;;;;;;5064450;28;20032;-50
2024/02/11 08:15:42;;;;;;;1.83;1.27;;;9.30;99.90;;;;;;5066033;28;20025;-50
2024/02/11 08:18:09;;;;;;;1.77;1.40;;;9.30;99.90;;;;;;5064563;28;20108;-50
2024/02/11 08:20:34;;;;;;;1.70;1.60;;;9.30;99.90;;;;;;5064844;28;20025;-50
2024/02/11 08:23:00;;;;;;;2.38;1.48;;;9.30;99.90;;;;;;5065764;28;20031;-50
2024/02/11 08:25:25;;;;;;;1.42;1.33;;;9.30;99.90;;;;;;5065797;28;20036;-50
2024/02/11 08:27:51;;;;;;;1.70;1.58;;;9.30;99.90;;;;;;5064622;28;20089;-50
2024/02/11 08:30:17;;;;;;;2.03;1.45;;;9.30;99.90;;;;;;5065875;28;20033;-50
2024/02/11 08:32:42;;;;;;;1.42;1.30;;;9.30;99.90;;;;;;5065560;28;20033;-49
2024/02/11 08:35:11;;;;;;;1.73;1.58;;;9.30;99.90;;;;;;5068632;28;20032;-50
2024/02/11 08:37:37;;;;;;;1.50;1.40;;;9.30;99.90;;;;;;5069531;28;20044;-50
2024/02/11 08:40:03;;;;;;;1.77;1.60;;;9.30;99.90;;;;;;5069706;28;20033;-50
2024/02/11 08:42:29;;;;;;;1.40;1.30;;;9.30;99.90;;;;;;5069339;28;20017;-50
2024/02/11 08:44:55;;;;;;;2.17;1.60;;;9.30;99.90;;;;;;5068375;28;20481;-50
2024/02/11 08:47:21;;;;;;;1.45;1.17;;;9.30;99.90;;;;;;5068035;28;20024;-49
2024/02/11 08:49:47;;;;;;;1.40;1.10;;;9.30;99.90;;;;;;5069454;28;20094;-50
2024/02/11 08:52:13;;;;;;;1.50;1.35;;;9.40;99.90;;;;;;5068391;28;20021;-50
2024/02/11 08:54:39;;;;;;;1.20;1.10;;;9.30;99.90;;;;;;5069562;28;20036;-50
2024/02/11 08:57:04;;;;;;;2.30;1.60;;;9.30;99.90;;;;;;5068202;28;20029;-50
2024/02/11 08:59:30;;;;;;;1.50;1.40;;;9.30;99.90;;;;;;5068088;28;20036;-50
2024/02/11 09:01:56;;;;;;;2.22;1.70;;;9.40;99.90;;;;;;5066386;28;20037;-50
2024/02/11 09:04:23;;;;;;;1.92;1.50;;;9.30;99.90;;;;;;5067415;28;20140;-50
2024/02/11 09:06:55;;;;;;;1.75;1.48;;;9.40;99.90;;;;;;5068987;28;20025;-50
2024/02/11 09:09:27;;;;;;;2.28;1.55;;;9.40;99.90;;;;;;5067886;28;20029;-50
2024/02/11 09:11:54;;;;;;;1.55;1.45;;;9.40;99.90;;;;;;5067457;28;20036;-50
2024/02/11 09:14:20;;;;;;;1.92;1.73;;;9.40;99.90;;;;;;5068982;28;20044;-50
2024/02/11 09:16:46;;;;;;;2.55;1.55;;;9.40;99.90;;;;;;5068854;28;20033;-50
2024/02/11 09:19:12;;;;;;;3.15;1.70;;;9.40;99.90;;;;;;5068968;28;20071;-50
2024/02/11 09:21:37;;;;;;;4.50;2.00;;;9.40;99.90;;;;;;5067383;28;20083;-50
2024/02/11 09:24:03;;;;;;;7.50;2.13;;;9.40;99.90;;;;;;5067453;28;20061;-50
2024/02/11 09:26:28;;;;;;;2.55;1.70;;;9.40;99.90;;;;;;5067330;28;20044;-50
2024/02/11 09:28:56;;;;;;;5.28;2.15;;;9.40;99.90;;;;;;5068601;28;20033;-50
2024/02/11 09:31:21;;;;;;;4.20;2.00;;;9.40;99.90;;;;;;5067058;28;20037;-50
2024/02/11 09:33:47;;;;;;;6.03;2.30;;;9.50;99.90;;;;;;5068446;28;20108;-50
2024/02/11 09:36:13;;;;;;;3.85;2.03;;;9.50;99.90;;;;;;5067024;28;20513;-50
2024/02/11 09:38:38;;;;;;;6.10;1.83;;;9.50;99.90;;;;;;5068249;28;20082;-50
2024/02/11 09:41:05;;;;;;;8.05;2.33;;;9.50;99.90;;;;;;5067165;28;20033;-50
2024/02/11 09:43:31;;;;;;;7.40;2.63;;;9.50;99.90;;;;;;5067088;28;20025;-50
2024/02/11 09:45:59;;;;;;;8.80;2.33;;;9.60;99.90;;;;;;5066108;28;20043;-50
2024/02/11 09:48:25;;;;;;;9.43;2.95;;;9.60;99.90;;;;;;5065854;28;20025;-49
2024/02/11 09:50:52;;;;;;;10.30;2.97;;;9.60;99.90;;;;;;5067019;28;20035;-50
2024/02/11 09:53:17;;;;;;;18.45;3.00;;;9.60;99.90;;;;;;5067939;28;20021;-48
2024/02/11 09:55:44;;;;;;;8.25;2.83;;;9.60;99.90;;;;;;5067203;28;20097;-49
2024/02/11 09:58:10;;;;;;;33.63;3.83;;;9.60;99.90;;;;;;5064688;28;20021;-50
2024/02/11 10:00:36;;;;;;;23.98;3.45;;;9.70;99.90;;;;;;5057806;28;20115;-50
2024/02/11 10:03:02;;;;;;;23.60;3.58;;;9.70;99.90;;;;;;5064721;28;20107;-50
2024/02/11 10:05:29;;;;;;;18.60;3.88;;;9.70;99.90;;;;;;5077544;28;20062;-49
2024/02/11 10:07:55;;;;;;;26.33;3.58;;;9.80;99.90;;;;;;5065296;28;20035;-50
2024/02/11 10:10:20;;;;;;;24.52;3.97;;;9.80;99.90;;;;;;5063237;28;20021;-50
2024/02/11 10:12:47;;;;;;;36.53;3.97;;;9.80;99.90;;;;;;5070628;28;20027;-49
2024/02/11 10:15:15;;;;;;;28.90;4.95;;;9.80;99.90;;;;;;5051970;28;20030;-50
2024/02/11 10:17:41;;;;;;;32.25;5.05;;;9.80;99.90;;;;;;5045659;28;20029;-49
2024/02/11 10:20:09;;;;;;;30.15;4.25;;;9.90;99.90;;;;;;5063207;28;20504;-50
2024/02/11 10:22:35;;;;;;;23.35;4.30;;;9.90;99.90;;;;;;5065247;28;20040;-50
2024/02/11 10:25:02;;;;;;;40.33;4.82;;;9.90;99.90;;;;;;5067274;28;20029;-50
2024/02/11 10:27:30;;;;;;;34.17;6.30;;;9.90;99.90;;;;;;5066606;28;20040;-50
2024/02/11 10:29:55;;;;;;;32.67;5.05;;;10.00;99.90;;;;;;5065579;28;20113;-50
2024/02/11 10:32:22;;;;;;;38.03;5.22;;;10.00;99.90;;;;;;5065468;28;20377;-50
2024/02/11 10:34:47;;;;;;;37.13;5.90;;;10.00;99.90;;;;;;5066939;28;20033;-50
2024/02/11 10:37:14;;;;;;;95.78;8.80;;;10.00;99.90;;;;;;5065411;28;20402;-50
2024/02/11 10:39:40;;;;;;;28.10;5.22;;;10.10;99.90;;;;;;5066988;28;20040;-49
2024/02/11 10:42:08;;;;;;;47.65;7.25;;;10.10;99.90;;;;;;5066160;28;20037;-50
2024/02/11 10:44:36;;;;;;;37.72;5.38;;;10.10;99.90;;;;;;5048641;28;20029;-50
2024/02/11 10:47:01;;;;;;;59.20;6.82;;;10.20;99.90;;;;;;5065391;28;20037;-50
2024/02/11 10:49:27;;;;;;;42.85;6.05;;;10.20;99.90;;;;;;5065373;28;20130;-50
2024/02/11 10:51:55;;;;;;;52.80;6.53;;;10.20;99.90;;;;;;5065088;28;20060;-50
2024/02/11 10:54:21;;;;;;;62.78;7.05;;;10.20;99.90;;;;;;5029172;28;20045;-50
2024/02/11 10:56:47;;;;;;;62.03;6.80;;;10.20;99.90;;;;;;5058313;28;20445;-50
2024/02/11 10:59:20;;;;;;;53.83;7.20;;;10.30;99.90;;;;;;5064465;28;20036;-50
2024/02/11 11:01:46;;;;;;;53.15;7.57;;;10.30;99.90;;;;;;5062170;28;20033;-50
2024/02/11 11:04:15;;;;;;;75.10;8.57;;;10.40;99.90;;;;;;5065182;28;20021;-52
2024/02/11 11:06:40;;;;;;;52.88;8.57;;;10.40;99.90;;;;;;5063884;28;20472;-50
2024/02/11 11:09:06;;;;;;;74.50;9.75;;;10.40;99.90;;;;;;5064279;28;20082;-50
2024/02/11 11:11:32;;;;;;;95.53;10.52;;;10.50;99.90;;;;;;5064130;28;20028;-50
2024/02/11 11:13:58;;;;;;;92.13;10.43;;;10.50;99.90;;;;;;5065344;28;20029;-49
2024/02/11 11:16:30;;;;;;;66.82;7.50;;;10.50;99.90;;;;;;5065120;28;20044;-50
2024/02/11 11:19:01;;;;;;;51.10;6.93;;;10.50;99.90;;;;;;5056150;28;20024;-50
2024/02/11 11:21:27;;;;;;;81.00;10.02;;;10.50;99.90;;;;;;5056117;28;20099;-50
2024/02/11 11:23:53;;;;;;;85.75;9.52;;;10.60;99.90;;;;;;5068147;28;20409;-50
2024/02/11 11:26:20;;;;;;;135.13;13.45;;;10.60;99.90;;;;;;5064996;28;20025;-49
2024/02/11 11:28:46;;;;;;;90.90;12.70;;;10.60;99.90;;;;;;5064058;28;20040;-50
2024/02/11 11:31:13;;;;;;;112.25;12.00;;;10.70;99.90;;;;;;5064327;28;20029;-50
2024/02/11 11:33:39;;;;;;;146.10;17.77;;;10.70;99.90;;;;;;5063631;28;20048;-50
2024/02/11 11:36:05;;;;;;;218.02;24.30;;;10.70;99.90;;;;;;5079444;28;20033;-50
2024/02/11 11:38:31;;;;;;;130.57;13.70;;;10.70;99.90;;;;;;5065432;28;20138;-50
2024/02/11 11:40:58;;;;;;;116.10;15.20;;;10.70;99.90;;;;;;5065246;28;20104;-49
2024/02/11 11:43:28;;;;;;;131.73;16.88;;;10.80;99.90;;;;;;5062707;28;20032;-50
2024/02/11 11:45:59;;;;;;;124.55;13.13;;;10.80;99.90;;;;;;5063452;28;20047;-50
2024/02/11 11:48:26;;;;;;;152.90;14.73;;;10.90;99.90;;;;;;5065269;28;20036;-49
2024/02/11 11:51:07;;;;;;;170.52;14.95;;;10.90;99.90;;;;;;5063491;28;20037;-50
2024/02/11 11:53:33;;;;;;;160.13;16.92;;;11.00;99.90;;;;;;5063327;28;20028;-50
2024/02/11 11:56:03;;;;;;;118.00;14.02;;;11.00;99.90;;;;;;5064393;28;20029;-49
2024/02/11 11:58:29;;;;;;;161.27;18.17;;;11.10;99.90;;;;;;5031047;28;20030;-50
2024/02/11 12:01:04;;;;;;;129.25;15.07;;;11.10;99.90;;;;;;5062784;28;20037;-50
2024/02/11 12:03:31;;;;;;;138.88;16.10;;;11.10;99.90;;;;;;5061978;28;20115;-48
2024/02/11 12:05:57;;;;;;;162.63;18.13;;;11.10;99.90;;;;;;5060233;28;20033;-50
2024/02/11 12:08:25;;;;;;;161.25;15.98;;;11.20;99.90;;;;;;5076381;28;20021;-50
2024/02/11 12:11:00;;;;;;;173.05;17.35;;;11.20;99.90;;;;;;5067393;28;20112;-50
2024/02/11 12:13:26;;;;;;;;;;;11.20;99.90;;;;;;5051053;28;20089;-50
2024/02/11 12:15:53;;;;;;;;;;;11.30;99.90;;;;;;5067686;28;19923;-50
2024/02/11 12:18:18;;;;;;;153.07;16.58;;;11.30;99.90;;;;;;5100693;28;19916;-50
2024/02/11 12:20:44;;;;;;;133.45;15.75;;;11.30;99.90;;;;;;5067309;28;20083;-50
2024/02/11 12:23:11;;;;;;;118.10;14.77;;;11.30;99.90;;;;;;5067830;28;20028;-50
2024/02/11 12:25:39;;;;;;;145.38;15.57;;;11.30;99.90;;;;;;5068141;28;20067;-49
2024/02/11 12:28:06;;;;;;;152.70;19.05;;;11.40;99.90;;;;;;5078519;28;20049;-49
2024/02/11 12:30:33;;;;;;;163.10;19.63;;;11.40;99.90;;;;;;5067099;28;20108;-50
2024/02/11 12:32:59;;;;;;;180.25;20.15;;;11.40;99.90;;;;;;5048882;28;20052;-50
2024/02/11 12:35:31;;;;;;;192.00;19.42;;;11.40;99.90;;;;;;5066493;28;20093;-50
2024/02/11 12:37:58;;;;;;;205.10;19.83;;;11.50;99.90;;;;;;5063828;28;20080;-50
2024/02/11 12:40:24;;;;;;;213.73;21.80;;;11.50;99.90;;;;;;5064044;28;20021;-50
2024/02/11 12:42:59;;;;;;;166.25;19.58;;;11.60;99.90;;;;;;5065156;28;20032;-50
2024/02/11 12:45:26;;;;;;;183.05;18.42;;;11.60;99.70;;;;;;5063675;28;20060;-50